Flight Track Log - Related Links

Times and Time Zones

All times are in EDT time to prevent confusion due to time zone crossing. See the SLI2424 flight status page for this flight to view local times or setup timezone preferences in your user account.

Time Position Orientation Groundspeed Altitude Reporting Facility
EDT Latitude Longitude Course Direction KTS MPH feet Rate Location/Type
Wed 09:54:32 PM 20.8535 -98.7382 13° North  Level Estimated
Wed 09:55:32 PM 20.9510 -98.7150 13° North  Level Estimated
Wed 09:56:32 PM 21.0485 -98.6918 13° North  Level Estimated
Wed 09:57:32 PM 21.1460 -98.6685 13° North  Level Estimated
Wed 09:58:32 PM 21.2434 -98.6452 13° North  Level Estimated
Wed 09:59:32 PM 21.3409 -98.6219 13° North  Level Estimated
Wed 10:00:32 PM 21.4384 -98.5986 13° North  Level Estimated
Wed 10:01:32 PM 21.5359 -98.5752 13° North  Level Estimated
Wed 10:02:32 PM 21.6333 -98.5518 13° North  Level Estimated
Wed 10:03:32 PM 21.7308 -98.5283 13° North  Level Estimated
Wed 10:04:32 PM 21.8282 -98.5048 13° North  Level Estimated
Wed 10:05:32 PM 21.9257 -98.4813 13° North  Level Estimated
Wed 10:06:32 PM 22.0231 -98.4578 13° North  Level Estimated
Wed 10:07:32 PM 22.1206 -98.4342 13° North  Level Estimated
Wed 10:08:32 PM 22.2181 -98.4106 13° North  Level Estimated
Wed 10:09:32 PM 22.3155 -98.3869 13° North  Level Estimated
Wed 10:10:32 PM 22.4129 -98.3633 13° North  Level Estimated
Wed 10:11:32 PM 22.5104 -98.3396 13° North  Level Estimated
Wed 10:12:32 PM 22.6078 -98.3158 13° North  Level Estimated
Wed 10:13:32 PM 22.7052 -98.2921 13° North  Level Estimated
Wed 10:14:32 PM 22.8027 -98.2682 13° North  Level Estimated
Wed 10:15:32 PM 22.9001 -98.2444 13° North  Level Estimated
Wed 10:16:32 PM 22.9975 -98.2205 13° North  Level Estimated
Wed 10:17:32 PM 23.0949 -98.1966 13° North  Level Estimated
Wed 10:18:32 PM 23.1923 -98.1727 13° North  Level Estimated
Wed 10:19:32 PM 23.2897 -98.1487 13° North  Level Estimated
Wed 10:20:32 PM 23.3871 -98.1247 13° North  Level Estimated
Wed 10:21:32 PM 23.4845 -98.1006 13° North  Level Estimated
Wed 10:22:32 PM 23.5819 -98.0765 13° North  Level Estimated
Wed 10:23:32 PM 23.6793 -98.0524 13° North  Level Estimated
Wed 10:24:32 PM 23.7767 -98.0283 13° North  Level Estimated
Wed 10:25:32 PM 23.8741 -98.0041 13° North  Level Estimated
Wed 10:26:32 PM 23.9715 -97.9798 13° North  Level Estimated
Wed 10:27:32 PM 24.0689 -97.9556 13° North  Level Estimated
Wed 10:28:32 PM 24.1662 -97.9313 13° North  Level Estimated
Wed 10:29:32 PM 24.2636 -97.9069 13° North  Level Estimated
Wed 10:30:32 PM 24.3610 -97.8825 13° North  Level Estimated
Wed 10:31:32 PM 24.4583 -97.8581 13° North  Level Estimated
Wed 10:32:32 PM 24.5557 -97.8336 13° North  Level Estimated
Wed 10:33:32 PM 24.6530 -97.8092 13° North  Level Estimated
Wed 10:34:32 PM 24.7504 -97.7846 13° North  Level Estimated
Wed 10:35:32 PM 24.8477 -97.7601 13° North  Level Estimated
Wed 10:36:32 PM 24.9451 -97.7355 13° North  Level Estimated
Wed 10:37:32 PM 25.0424 -97.7108 13° North  Level Estimated
Wed 10:38:32 PM 25.1398 -97.6861 13° North  Level Estimated
Wed 10:39:32 PM 25.2371 -97.6614 13° North  Level Estimated
Wed 10:40:32 PM 25.3344 -97.6366 13° North  Level Estimated
Wed 10:41:32 PM 25.4317 -97.6118 13° North  Level Estimated
Wed 10:42:32 PM 25.5291 -97.5870 13° North  Level Estimated
Wed 10:43:32 PM 25.6264 -97.5621 13° North  Level Estimated
Wed 10:44:32 PM 25.7237 -97.5372 13° North  Level Estimated
Wed 10:45:32 PM 25.8210 -97.5122 193° South  Level Estimated
Wed 10:46:32 PM 25.7237 -97.5372 13° North  Level Estimated
Wed 10:47:32 PM 25.8210 -97.5122 193° South  Level Estimated
Wed 10:48:32 PM 25.7237 -97.5372 13° North  Level Estimated
Wed 10:49:32 PM 25.8210 -97.5122 193° South  Level Estimated
Wed 10:50:32 PM 25.7237 -97.5372 13° North  Level Estimated
Wed 10:51:32 PM 25.8210 -97.5122 193° South  Level Estimated
Wed 10:52:32 PM 25.7237 -97.5372 13° North  Level Estimated
Wed 10:53:32 PM 25.8210 -97.5122 193° South  Level Estimated
Wed 10:54:32 PM 25.7237 -97.5372 13° North  Level Estimated
Wed 10:55:32 PM 25.8210 -97.5122 193° South  Level Estimated
Wed 10:56:32 PM 25.7237 -97.5372 13° North  Level Estimated
Wed 10:57:32 PM 25.8210 -97.5122 193° South  Level Estimated
Wed 10:58:32 PM 25.7237 -97.5372 13° North  Level Estimated
Wed 10:59:32 PM 25.8210 -97.5122 193° South  Level Estimated
Wed 11:00:32 PM 25.7237 -97.5372 193° South  Level Estimated

Login

Don't have an account? Register now (free) for customized features, flight alerts, and more!